Time;durP1;ratioP1;P1;durP2;ratioP2;P2;SDS_P1;SDS_P2;PMS_P1;PMS_P2;Temp;Humidity;BMP_temperature;BMP_pressure;BME280_temperature;BME280_humidity;BME280_pressure;Samples;Min_cycle;Max_cycle;Signal;HPM_P1;HPM_P2
2021/03/04 00:00:12;;;;;;;17.67;11.95;;;3.40;73.90;;;;;;5040290;28;20013;-56
2021/03/04 00:02:39;;;;;;;16.13;11.68;;;3.40;73.80;;;;;;5033844;28;20025;-57
2021/03/04 00:05:07;;;;;;;17.67;11.23;;;3.40;73.80;;;;;;5032650;28;20025;-56
2021/03/04 00:07:33;;;;;;;18.33;12.68;;;3.40;73.70;;;;;;5042438;28;20389;-57
2021/03/04 00:09:59;;;;;;;18.98;13.10;;;3.40;73.80;;;;;;5043113;28;20437;-58
2021/03/04 00:12:25;;;;;;;24.08;13.70;;;3.40;73.90;;;;;;5034763;28;20045;-57
2021/03/04 00:14:51;;;;;;;31.40;14.40;;;3.40;73.80;;;;;;5041798;28;20115;-56
2021/03/04 00:17:17;;;;;;;23.73;13.18;;;3.40;73.80;;;;;;5034985;28;20109;-56
2021/03/04 00:19:43;;;;;;;20.80;13.93;;;3.40;73.60;;;;;;5039019;28;20036;-56
2021/03/04 00:22:09;;;;;;;21.40;13.25;;;3.40;73.50;;;;;;5037580;28;20123;-55
2021/03/04 00:24:34;;;;;;;25.02;13.68;;;3.30;73.60;;;;;;5034038;28;20358;-55
2021/03/04 00:27:00;;;;;;;19.80;13.10;;;3.30;73.60;;;;;;5034275;28;20071;-58
2021/03/04 00:29:26;;;;;;;23.20;14.40;;;3.30;73.80;;;;;;5025674;28;20060;-57
2021/03/04 00:31:52;;;;;;;24.27;14.77;;;3.30;74.00;;;;;;5035638;28;20508;-54
2021/03/04 00:34:18;;;;;;;28.30;17.45;;;3.30;73.70;;;;;;5032382;28;20037;-54
2021/03/04 00:36:43;;;;;;;32.80;19.02;;;3.30;73.90;;;;;;5037811;28;20017;-57
2021/03/04 00:39:09;;;;;;;43.42;22.20;;;3.30;73.80;;;;;;5034204;28;20025;-54
2021/03/04 00:41:35;;;;;;;32.55;17.65;;;3.30;73.70;;;;;;5023383;28;20013;-56
2021/03/04 00:44:04;;;;;;;34.40;18.75;;;3.30;73.50;;;;;;5044912;28;20025;-58
2021/03/04 00:46:30;;;;;;;40.05;20.45;;;3.30;73.40;;;;;;5040613;28;20029;-55
2021/03/04 00:48:56;;;;;;;35.33;19.45;;;3.20;73.40;;;;;;5033769;28;20492;-57
2021/03/04 00:51:22;;;;;;;31.52;17.83;;;3.20;73.60;;;;;;5032577;28;20033;-55
2021/03/04 00:53:47;;;;;;;30.33;17.77;;;3.10;73.50;;;;;;5044719;28;20048;-56
2021/03/04 00:56:13;;;;;;;26.10;15.43;;;3.10;73.50;;;;;;5037759;28;20022;-56
2021/03/04 00:58:39;;;;;;;25.40;12.93;;;3.10;73.50;;;;;;5030028;28;20022;-55
2021/03/04 01:01:05;;;;;;;22.40;13.23;;;3.00;73.50;;;;;;5036150;28;20365;-56
2021/03/04 01:03:31;;;;;;;22.90;13.00;;;3.00;73.50;;;;;;5032739;28;20032;-55
2021/03/04 01:05:57;;;;;;;19.33;11.20;;;3.00;73.70;;;;;;5046971;28;20033;-57
2021/03/04 01:08:23;;;;;;;19.58;11.73;;;3.00;73.70;;;;;;5044751;28;20041;-57
2021/03/04 01:10:49;;;;;;;18.70;12.27;;;2.90;73.80;;;;;;5029435;28;20404;-54
2021/03/04 01:13:15;;;;;;;19.75;11.43;;;2.90;74.00;;;;;;5032404;28;20040;-54
2021/03/04 01:15:40;;;;;;;19.45;11.82;;;2.80;73.80;;;;;;5032612;28;20416;-56
2021/03/04 01:18:06;;;;;;;16.95;11.23;;;2.80;73.90;;;;;;5042424;28;20021;-56
2021/03/04 01:20:32;;;;;;;18.80;11.13;;;2.80;73.90;;;;;;5032907;28;20025;-56
2021/03/04 01:22:59;;;;;;;15.77;9.95;;;2.80;74.00;;;;;;5035466;28;20021;-56
2021/03/04 01:25:25;;;;;;;14.20;9.75;;;2.70;73.90;;;;;;5032428;28;20033;-56
2021/03/04 01:27:52;;;;;;;15.75;10.35;;;2.70;74.10;;;;;;5026128;28;20021;-54
2021/03/04 01:30:23;;;;;;;16.63;10.23;;;2.70;74.70;;;;;;5033027;28;20532;-54
2021/03/04 01:32:49;;;;;;;13.18;9.43;;;2.60;74.20;;;;;;5031855;28;20026;-56
2021/03/04 01:35:15;;;;;;;11.77;8.70;;;2.60;74.20;;;;;;5031887;28;20503;-56
2021/03/04 01:37:41;;;;;;;12.60;8.85;;;2.60;74.30;;;;;;5030761;28;20033;-56
2021/03/04 01:40:09;;;;;;;14.23;9.35;;;2.50;74.30;;;;;;5036161;28;20013;-53
2021/03/04 01:42:35;;;;;;;12.57;8.43;;;2.50;74.40;;;;;;5045748;28;20021;-55
2021/03/04 01:45:01;;;;;;;14.25;9.68;;;2.50;74.50;;;;;;5031267;28;20017;-55
2021/03/04 01:47:28;;;;;;;15.60;10.25;;;2.50;74.40;;;;;;5032579;28;20021;-53
2021/03/04 01:49:53;;;;;;;13.13;8.73;;;2.40;74.60;;;;;;5036049;28;20567;-57
2021/03/04 01:52:21;;;;;;;16.60;10.05;;;2.40;74.60;;;;;;5044706;28;20057;-57
2021/03/04 01:54:47;;;;;;;18.20;10.55;;;2.40;74.60;;;;;;5029587;28;20029;-57
2021/03/04 01:57:13;;;;;;;17.10;10.85;;;2.40;74.60;;;;;;5025861;28;20097;-56
2021/03/04 01:59:40;;;;;;;16.90;10.65;;;2.50;74.70;;;;;;5030862;28;20033;-56
2021/03/04 02:02:06;;;;;;;18.33;10.85;;;2.50;74.70;;;;;;5031070;28;20022;-55
2021/03/04 02:04:31;;;;;;;16.38;10.77;;;2.50;74.60;;;;;;5038137;28;20421;-56
2021/03/04 02:07:13;;;;;;;18.02;11.38;;;2.50;74.70;;;;;;5043312;28;20061;-57
2021/03/04 02:09:43;;;;;;;17.85;11.85;;;2.50;74.50;;;;;;5041052;28;20017;-55
2021/03/04 02:12:21;;;;;;;17.55;11.32;;;2.50;74.60;;;;;;5033471;28;20021;-56
2021/03/04 02:14:58;;;;;;;24.40;12.02;;;2.50;74.50;;;;;;5028780;28;20036;-54
2021/03/04 02:17:29;;;;;;;17.20;10.82;;;2.50;74.50;;;;;;5040346;28;20017;-54
2021/03/04 02:20:13;;;;;;;18.60;12.05;;;2.50;74.50;;;;;;5044871;28;20018;-56
2021/03/04 02:23:06;;;;;;;19.02;11.63;;;2.50;74.60;;;;;;5035628;28;20473;-57
2021/03/04 02:25:58;;;;;;;16.73;10.45;;;2.50;74.40;;;;;;5035490;28;20021;-56
2021/03/04 02:28:26;;;;;;;15.77;10.65;;;2.50;74.70;;;;;;5023750;28;20029;-55
2021/03/04 02:30:54;;;;;;;21.75;12.85;;;2.50;74.50;;;;;;5027464;28;20116;-56
2021/03/04 02:33:23;;;;;;;18.58;11.70;;;2.50;74.80;;;;;;5037746;28;20033;-57
2021/03/04 02:35:50;;;;;;;25.48;14.48;;;2.50;74.90;;;;;;5036312;28;20330;-53
2021/03/04 02:38:18;;;;;;;29.73;14.55;;;2.50;75.10;;;;;;5036113;28;20022;-56
2021/03/04 02:40:46;;;;;;;26.48;13.52;;;2.50;75.00;;;;;;5043891;28;20029;-57
2021/03/04 02:43:15;;;;;;;23.38;14.05;;;2.60;75.00;;;;;;5043604;28;20025;-56
2021/03/04 02:45:44;;;;;;;22.60;14.23;;;2.60;74.80;;;;;;5036165;28;20053;-57
2021/03/04 02:48:15;;;;;;;22.05;13.00;;;2.60;74.90;;;;;;5037416;28;20107;-56
2021/03/04 02:50:42;;;;;;;22.95;13.07;;;2.60;75.00;;;;;;5038836;28;20037;-57
2021/03/04 02:53:08;;;;;;;21.25;12.80;;;2.60;75.00;;;;;;5041544;28;20029;-53
2021/03/04 02:55:35;;;;;;;23.83;14.40;;;2.70;75.10;;;;;;5038209;28;20033;-56
2021/03/04 02:58:04;;;;;;;20.35;12.80;;;2.70;75.00;;;;;;5030443;28;20575;-57
2021/03/04 03:00:31;;;;;;;16.63;11.23;;;2.70;74.80;;;;;;5035512;28;20488;-57
2021/03/04 03:02:59;;;;;;;19.48;12.02;;;2.70;74.70;;;;;;5039157;28;20033;-56
2021/03/04 03:05:28;;;;;;;22.27;12.70;;;2.70;74.70;;;;;;5036507;28;20017;-58
2021/03/04 03:07:55;;;;;;;19.83;12.60;;;2.70;74.70;;;;;;5044708;28;20029;-57
2021/03/04 03:10:21;;;;;;;19.92;13.20;;;2.60;75.40;;;;;;5040282;28;20389;-54
2021/03/04 03:12:48;;;;;;;23.88;14.20;;;2.60;75.00;;;;;;5034591;28;20088;-55
2021/03/04 03:15:17;;;;;;;22.65;13.80;;;2.60;75.00;;;;;;5034683;28;20079;-57
2021/03/04 03:17:44;;;;;;;20.55;12.57;;;2.60;75.10;;;;;;5044424;28;20017;-55
2021/03/04 03:20:12;;;;;;;23.20;13.68;;;2.60;74.80;;;;;;5034483;28;20092;-57
2021/03/04 03:22:38;;;;;;;18.10;10.95;;;2.70;74.90;;;;;;5034306;28;20021;-56
2021/03/04 03:25:06;;;;;;;20.52;12.63;;;2.70;74.70;;;;;;5034565;28;20084;-56
2021/03/04 03:27:32;;;;;;;16.83;11.30;;;2.60;74.70;;;;;;5041495;28;20026;-57
2021/03/04 03:29:59;;;;;;;19.33;12.45;;;2.60;74.40;;;;;;5027092;28;20021;-55
2021/03/04 03:32:29;;;;;;;23.75;13.57;;;2.60;74.60;;;;;;5026530;28;20097;-57
2021/03/04 03:34:55;;;;;;;19.88;12.50;;;2.60;74.60;;;;;;5035711;28;20091;-55
2021/03/04 03:37:22;;;;;;;16.52;11.63;;;2.60;74.60;;;;;;5035773;28;20093;-58
2021/03/04 03:39:50;;;;;;;24.45;13.77;;;2.70;74.60;;;;;;5035231;28;20054;-58
2021/03/04 03:42:17;;;;;;;17.08;11.27;;;2.70;74.70;;;;;;5034470;28;20020;-55
2021/03/04 03:44:44;;;;;;;24.02;14.30;;;2.60;74.50;;;;;;5039662;28;20030;-53
2021/03/04 03:47:11;;;;;;;19.50;13.65;;;2.70;74.70;;;;;;5029175;28;20057;-55
2021/03/04 03:49:38;;;;;;;17.42;11.38;;;2.70;74.80;;;;;;5033229;28;20038;-54
2021/03/04 03:52:05;;;;;;;18.63;12.23;;;2.70;74.80;;;;;;5044469;28;20047;-56
2021/03/04 03:54:32;;;;;;;15.23;11.20;;;2.70;74.80;;;;;;5033736;28;20019;-57
2021/03/04 03:56:59;;;;;;;20.10;12.80;;;2.70;75.00;;;;;;5028676;28;20014;-57
2021/03/04 03:59:26;;;;;;;18.65;11.55;;;2.70;74.90;;;;;;5031628;28;20029;-54
2021/03/04 04:01:52;;;;;;;17.48;10.85;;;2.70;74.90;;;;;;5030730;28;20056;-57
2021/03/04 04:04:19;;;;;;;14.50;9.85;;;2.70;74.70;;;;;;5035417;28;20061;-55
2021/03/04 04:06:45;;;;;;;17.65;11.93;;;2.70;74.50;;;;;;5033381;28;20096;-57
2021/03/04 04:09:11;;;;;;;16.08;11.10;;;2.70;74.70;;;;;;5036494;28;20112;-57
2021/03/04 04:11:37;;;;;;;21.48;13.63;;;2.70;74.60;;;;;;5036132;28;20142;-57
2021/03/04 04:14:03;;;;;;;20.55;13.57;;;2.70;74.70;;;;;;5035565;28;20033;-55
2021/03/04 04:16:29;;;;;;;21.45;13.40;;;2.70;74.60;;;;;;5031830;28;20163;-58
2021/03/04 04:18:56;;;;;;;25.05;15.07;;;2.70;74.60;;;;;;5038667;28;20432;-55
2021/03/04 04:21:22;;;;;;;20.88;12.52;;;2.70;74.80;;;;;;5037528;28;20025;-54
2021/03/04 04:23:49;;;;;;;22.35;13.30;;;2.60;74.60;;;;;;5035565;28;20029;-57
2021/03/04 04:26:17;;;;;;;17.15;12.43;;;2.60;74.60;;;;;;5034171;28;20087;-57
2021/03/04 04:28:44;;;;;;;21.90;14.23;;;2.60;74.50;;;;;;5035845;28;20037;-57
2021/03/04 04:31:10;;;;;;;23.55;14.38;;;2.60;74.80;;;;;;5026855;28;20036;-57
2021/03/04 04:33:36;;;;;;;22.55;14.43;;;2.60;74.80;;;;;;5035439;28;20477;-56
2021/03/04 04:36:02;;;;;;;22.60;14.15;;;2.60;74.80;;;;;;5031019;28;20031;-57
2021/03/04 04:38:28;;;;;;;22.38;14.35;;;2.60;75.00;;;;;;5028880;28;20029;-55
2021/03/04 04:40:54;;;;;;;26.08;14.63;;;2.60;75.20;;;;;;5042535;28;20032;-53
2021/03/04 04:43:19;;;;;;;21.33;14.18;;;2.60;74.90;;;;;;5041266;28;20068;-56
2021/03/04 04:45:45;;;;;;;26.80;16.45;;;2.60;74.90;;;;;;5040070;28;20063;-54
2021/03/04 04:48:11;;;;;;;24.60;14.98;;;2.60;75.00;;;;;;5034848;28;20029;-56
2021/03/04 04:50:37;;;;;;;21.70;13.23;;;2.60;75.00;;;;;;5041091;28;20037;-57
2021/03/04 04:53:03;;;;;;;26.42;16.08;;;2.60;75.00;;;;;;5036255;28;20034;-58
2021/03/04 04:55:29;;;;;;;25.48;15.75;;;2.60;75.30;;;;;;5038469;28;20036;-56
2021/03/04 04:57:54;;;;;;;19.80;13.57;;;2.60;75.60;;;;;;5027788;28;20047;-56
2021/03/04 05:00:21;;;;;;;23.73;13.60;;;2.60;75.60;;;;;;5034404;28;20037;-57
2021/03/04 05:02:47;;;;;;;22.60;15.27;;;2.70;75.60;;;;;;5037114;28;20396;-54
2021/03/04 05:05:13;;;;;;;23.55;15.20;;;2.80;75.60;;;;;;5035870;28;20025;-55
2021/03/04 05:07:39;;;;;;;24.92;14.68;;;2.80;75.70;;;;;;5033454;28;20029;-57
2021/03/04 05:10:06;;;;;;;23.23;15.20;;;2.90;75.80;;;;;;5040485;28;20017;-58
2021/03/04 05:12:33;;;;;;;24.95;15.15;;;3.00;75.60;;;;;;5032721;28;20029;-55
2021/03/04 05:14:58;;;;;;;23.55;16.35;;;3.10;75.50;;;;;;5033817;28;20083;-54
2021/03/04 05:17:24;;;;;;;23.30;15.20;;;3.20;75.40;;;;;;5021039;28;20037;-56
2021/03/04 05:19:50;;;;;;;23.33;16.02;;;3.30;75.30;;;;;;5041256;28;20021;-56
2021/03/04 05:22:16;;;;;;;21.08;13.90;;;3.40;75.10;;;;;;5037173;28;20533;-55
2021/03/04 05:24:42;;;;;;;21.80;15.05;;;3.50;75.40;;;;;;5034234;28;20033;-54
2021/03/04 05:27:08;;;;;;;19.27;13.32;;;3.60;75.30;;;;;;5043503;28;20025;-56
2021/03/04 05:29:34;;;;;;;18.70;12.60;;;3.70;75.30;;;;;;5023647;28;20025;-57
2021/03/04 05:31:59;;;;;;;17.30;11.57;;;3.80;75.10;;;;;;5041637;28;20024;-58
2021/03/04 05:34:25;;;;;;;18.85;11.80;;;3.90;75.50;;;;;;5031641;28;20034;-57
2021/03/04 05:36:51;;;;;;;18.48;12.05;;;4.00;74.80;;;;;;5028098;28;20041;-57
2021/03/04 05:39:17;;;;;;;17.55;11.18;;;4.00;74.80;;;;;;5028265;28;20025;-57
2021/03/04 05:41:43;;;;;;;18.67;11.98;;;4.10;74.70;;;;;;5044789;28;20025;-56
2021/03/04 05:44:09;;;;;;;20.85;12.90;;;4.20;75.00;;;;;;5024721;28;20052;-57
2021/03/04 05:46:35;;;;;;;18.92;12.38;;;4.30;75.00;;;;;;5029697;28;20021;-56
2021/03/04 05:49:03;;;;;;;22.10;14.25;;;4.40;74.80;;;;;;5027264;28;20041;-57
2021/03/04 05:51:35;;;;;;;23.73;15.18;;;4.50;74.80;;;;;;5029993;28;20041;-55
2021/03/04 05:54:05;;;;;;;23.58;15.48;;;4.60;74.60;;;;;;5036483;28;20419;-57
2021/03/04 05:56:31;;;;;;;22.48;14.02;;;4.60;75.30;;;;;;5033517;28;20369;-57
2021/03/04 05:58:59;;;;;;;22.80;15.43;;;4.70;74.80;;;;;;5025949;28;20037;-57
2021/03/04 06:01:25;;;;;;;22.65;14.55;;;4.80;75.00;;;;;;5033838;28;20096;-57
2021/03/04 06:03:52;;;;;;;21.65;14.00;;;4.90;74.90;;;;;;5021989;28;20045;-57
2021/03/04 06:06:17;;;;;;;18.42;13.15;;;5.00;75.30;;;;;;5026279;28;20022;-57
2021/03/04 06:08:43;;;;;;;20.15;13.00;;;5.20;75.40;;;;;;5022299;28;20103;-57
2021/03/04 06:11:09;;;;;;;19.95;14.02;;;5.40;75.20;;;;;;5018829;28;20530;-56
2021/03/04 06:13:36;;;;;;;18.92;13.55;;;5.60;75.40;;;;;;5018509;28;20034;-56
2021/03/04 06:16:03;;;;;;;20.27;14.00;;;5.90;74.90;;;;;;5020888;28;20026;-57
2021/03/04 06:18:43;;;;;;;22.10;13.77;;;6.20;74.70;;;;;;5026997;28;20026;-57
2021/03/04 06:21:17;;;;;;;21.40;14.25;;;6.50;74.00;;;;;;5032751;28;20032;-58
2021/03/04 06:23:43;;;;;;;18.02;13.52;;;6.90;73.30;;;;;;5031604;28;20069;-56
2021/03/04 06:26:09;;;;;;;19.17;13.80;;;7.30;72.60;;;;;;5037021;28;20406;-57
2021/03/04 06:28:34;;;;;;;19.80;13.63;;;7.60;71.00;;;;;;5041175;28;20033;-57
2021/03/04 06:31:00;;;;;;;18.05;12.50;;;7.90;70.00;;;;;;5027427;28;20030;-57
2021/03/04 06:33:35;;;;;;;19.08;12.93;;;8.10;68.60;;;;;;5024369;28;20033;-57
2021/03/04 06:36:13;;;;;;;21.77;15.05;;;8.10;67.30;;;;;;5021772;28;20086;-58
2021/03/04 06:38:40;;;;;;;19.50;13.80;;;8.00;66.90;;;;;;5025214;28;20025;-55
2021/03/04 06:41:18;;;;;;;21.23;12.85;;;7.90;66.60;;;;;;5024384;28;20488;-57
2021/03/04 06:43:44;;;;;;;18.83;12.18;;;7.70;66.20;;;;;;5037776;28;20441;-58
2021/03/04 06:46:10;;;;;;;16.95;12.00;;;7.50;66.30;;;;;;5031127;28;20032;-56
2021/03/04 06:48:36;;;;;;;19.70;13.25;;;7.30;66.40;;;;;;5023489;28;20507;-57
2021/03/04 06:51:05;;;;;;;19.08;12.07;;;7.10;66.40;;;;;;5021584;28;20378;-57
2021/03/04 06:53:32;;;;;;;18.70;11.93;;;6.90;66.90;;;;;;5019079;28;20144;-57
2021/03/04 06:56:04;;;;;;;16.30;11.60;;;6.80;67.30;;;;;;5016798;28;21403;-56
2021/03/04 06:58:31;;;;;;;17.58;11.35;;;6.80;67.50;;;;;;5022595;28;20022;-59
2021/03/04 07:01:11;;;;;;;16.92;11.25;;;6.70;67.60;;;;;;5012824;28;20030;-58
2021/03/04 07:03:36;;;;;;;19.20;11.02;;;6.70;67.70;;;;;;5016282;28;20558;-58
2021/03/04 07:06:04;;;;;;;16.92;11.27;;;6.60;67.60;;;;;;5019167;28;20037;-56
2021/03/04 07:08:35;;;;;;;15.65;10.30;;;6.60;67.70;;;;;;5019561;28;20029;-56
2021/03/04 07:11:03;;;;;;;17.83;11.20;;;6.60;67.90;;;;;;5022385;28;20588;-57
2021/03/04 07:13:32;;;;;;;17.95;11.13;;;6.60;68.00;;;;;;5016437;28;20100;-57
2021/03/04 07:16:05;;;;;;;13.68;9.52;;;6.60;67.90;;;;;;5015483;28;20055;-57
2021/03/04 07:18:44;;;;;;;17.20;11.18;;;6.60;68.30;;;;;;5013195;28;20032;-59
2021/03/04 07:21:12;;;;;;;17.10;11.10;;;6.70;68.00;;;;;;5015880;28;20087;-57
2021/03/04 07:23:42;;;;;;;17.05;10.50;;;6.70;67.90;;;;;;5027444;28;20036;-59
2021/03/04 07:26:09;;;;;;;15.30;10.45;;;6.70;68.00;;;;;;5013142;28;20025;-57
2021/03/04 07:28:40;;;;;;;20.85;10.27;;;6.70;67.90;;;;;;5016652;28;20056;-57
2021/03/04 07:31:07;;;;;;;15.27;10.63;;;6.70;67.90;;;;;;5021960;28;20051;-61
2021/03/04 07:33:35;;;;;;;19.00;11.95;;;6.70;67.90;;;;;;5010337;28;20313;-61
2021/03/04 07:36:10;;;;;;;19.13;11.18;;;6.80;67.90;;;;;;5014052;28;20410;-61
2021/03/04 07:38:36;;;;;;;17.15;11.93;;;6.90;67.80;;;;;;5020438;28;20029;-59
2021/03/04 07:41:10;;;;;;;19.48;11.23;;;6.80;67.80;;;;;;5023380;28;20096;-60
2021/03/04 07:43:50;;;;;;;18.70;11.48;;;6.90;67.90;;;;;;5015176;28;20037;-61
2021/03/04 07:46:26;;;;;;;18.08;11.45;;;6.90;67.90;;;;;;5024562;28;20380;-60
2021/03/04 07:48:52;;;;;;;21.45;12.98;;;7.00;67.80;;;;;;5017241;28;20571;-59
2021/03/04 07:51:18;;;;;;;24.70;12.95;;;7.00;67.70;;;;;;5013331;28;20030;-60
2021/03/04 07:53:46;;;;;;;22.02;13.93;;;7.00;67.50;;;;;;5006209;28;20063;-60
2021/03/04 07:56:26;;;;;;;22.88;12.25;;;7.10;67.70;;;;;;5013526;28;20408;-61
2021/03/04 07:58:55;;;;;;;22.50;12.65;;;7.10;67.70;;;;;;5017620;28;20094;-59
2021/03/04 08:01:21;;;;;;;20.25;13.02;;;7.20;67.80;;;;;;5008142;28;20058;-61
2021/03/04 08:03:51;;;;;;;20.60;13.10;;;7.20;67.70;;;;;;5012479;28;20041;-61
2021/03/04 08:06:19;;;;;;;17.88;12.55;;;7.30;67.70;;;;;;5012523;28;20034;-60
2021/03/04 08:08:48;;;;;;;22.52;12.07;;;7.40;67.30;;;;;;5010439;28;20088;-63
2021/03/04 08:11:24;;;;;;;30.25;13.32;;;7.40;67.10;;;;;;5007293;28;20038;-62
2021/03/04 08:13:50;;;;;;;22.40;13.43;;;7.50;67.30;;;;;;5010354;28;20037;-58
2021/03/04 08:16:17;;;;;;;20.98;13.52;;;7.50;67.30;;;;;;5017028;28;20029;-58
2021/03/04 08:18:45;;;;;;;22.92;14.45;;;7.60;67.10;;;;;;5018505;28;20124;-62
2021/03/04 08:21:11;;;;;;;19.75;12.75;;;7.60;67.10;;;;;;5008118;28;20101;-60
2021/03/04 08:23:46;;;;;;;21.83;13.52;;;7.60;66.80;;;;;;5007956;28;20037;-60
2021/03/04 08:26:38;;;;;;;22.25;13.57;;;7.70;66.90;;;;;;5013092;28;20030;-57
2021/03/04 08:29:13;;;;;;;22.95;13.55;;;7.70;66.80;;;;;;5004160;28;20037;-60
2021/03/04 08:31:47;;;;;;;19.63;12.88;;;7.70;66.80;;;;;;5012181;28;20429;-61
2021/03/04 08:34:13;;;;;;;22.00;13.23;;;7.80;66.70;;;;;;5011758;28;20055;-58
2021/03/04 08:36:50;;;;;;;21.73;13.02;;;7.80;66.70;;;;;;5009572;28;20034;-59
2021/03/04 08:39:17;;;;;;;22.73;14.05;;;7.80;66.50;;;;;;5001880;28;20419;-60
2021/03/04 08:41:43;;;;;;;23.65;14.45;;;7.90;66.50;;;;;;5008419;28;20402;-58
2021/03/04 08:44:14;;;;;;;20.75;14.15;;;7.90;66.40;;;;;;5011107;28;20028;-58
2021/03/04 08:46:41;;;;;;;24.20;13.43;;;7.90;66.10;;;;;;5011733;28;20077;-58
2021/03/04 08:49:08;;;;;;;20.75;12.77;;;8.00;66.10;;;;;;5009494;28;20045;-58
2021/03/04 08:51:55;;;;;;;20.67;13.63;;;8.00;65.90;;;;;;5008723;28;20482;-58
2021/03/04 08:54:24;;;;;;;21.33;13.27;;;8.00;65.80;;;;;;5010891;28;20478;-58
2021/03/04 08:57:07;;;;;;;23.13;13.60;;;8.00;65.70;;;;;;5013315;28;20057;-57
2021/03/04 08:59:33;;;;;;;24.63;13.88;;;8.10;65.50;;;;;;5001166;28;21031;-58
2021/03/04 09:01:59;;;;;;;20.73;12.65;;;8.10;65.70;;;;;;5009643;28;20028;-59
2021/03/04 09:04:28;;;;;;;24.48;14.05;;;8.20;65.70;;;;;;5008591;28;20056;-58
2021/03/04 09:06:55;;;;;;;19.73;13.90;;;8.20;65.40;;;;;;5013464;28;20563;-58
2021/03/04 09:09:29;;;;;;;19.83;12.90;;;8.30;65.50;;;;;;5007829;28;20053;-58
2021/03/04 09:11:56;;;;;;;22.65;14.77;;;8.40;65.60;;;;;;5009507;28;20026;-58
2021/03/04 09:14:30;;;;;;;23.85;13.63;;;8.50;65.20;;;;;;5018617;28;20042;-59
2021/03/04 09:16:57;;;;;;;23.55;14.40;;;8.50;65.10;;;;;;5019405;28;20021;-58
2021/03/04 09:19:28;;;;;;;22.00;14.63;;;8.60;64.80;;;;;;5015141;28;20068;-57
2021/03/04 09:21:58;;;;;;;23.95;14.57;;;8.60;64.60;;;;;;5018882;28;20029;-58
2021/03/04 09:24:26;;;;;;;22.05;13.93;;;8.70;64.80;;;;;;5016770;28;20044;-58
2021/03/04 09:26:52;;;;;;;23.23;14.63;;;8.80;64.90;;;;;;5017557;28;20552;-60
2021/03/04 09:29:19;;;;;;;21.42;13.98;;;8.80;64.50;;;;;;5019749;28;20484;-61
2021/03/04 09:31:49;;;;;;;22.95;14.45;;;8.90;64.30;;;;;;5014963;28;20501;-60
2021/03/04 09:34:15;;;;;;;19.58;13.32;;;9.00;64.20;;;;;;5013075;28;20102;-57
2021/03/04 09:36:41;;;;;;;20.38;12.10;;;9.00;64.30;;;;;;5017088;28;20029;-60
2021/03/04 09:39:07;;;;;;;16.75;12.15;;;9.10;64.10;;;;;;5018871;28;20040;-59
2021/03/04 09:41:32;;;;;;;26.45;13.50;;;9.20;64.10;;;;;;5019400;28;20021;-61
2021/03/04 09:44:03;;;;;;;24.38;14.52;;;9.30;63.80;;;;;;5019766;28;20498;-60
2021/03/04 09:46:41;;;;;;;23.47;14.07;;;9.40;63.50;;;;;;5015826;28;20780;-60
2021/03/04 09:49:11;;;;;;;21.75;13.32;;;9.40;63.30;;;;;;5011620;28;20077;-63
2021/03/04 09:51:41;;;;;;;22.33;14.82;;;9.50;63.30;;;;;;5017783;28;20033;-61
2021/03/04 09:54:08;;;;;;;22.20;13.35;;;9.60;63.10;;;;;;5021402;28;20038;-61
2021/03/04 09:56:33;;;;;;;21.55;14.52;;;9.70;63.30;;;;;;5009246;28;20029;-61
2021/03/04 09:59:00;;;;;;;24.65;14.98;;;9.80;63.10;;;;;;5021377;28;20773;-61
2021/03/04 10:01:36;;;;;;;21.63;13.63;;;9.90;63.00;;;;;;5017999;28;20036;-60
2021/03/04 10:04:06;;;;;;;24.55;14.35;;;10.00;62.50;;;;;;5012024;28;20044;-60
2021/03/04 10:06:37;;;;;;;23.23;13.88;;;10.10;62.30;;;;;;5012282;28;20474;-59
2021/03/04 10:09:04;;;;;;;23.50;14.47;;;10.10;62.00;;;;;;5015018;28;20033;-60
2021/03/04 10:11:33;;;;;;;18.77;12.70;;;10.10;61.80;;;;;;5010394;28;20282;-60
2021/03/04 10:14:13;;;;;;;23.27;14.25;;;10.20;61.80;;;;;;5018391;28;20527;-60
2021/03/04 10:16:42;;;;;;;21.23;13.52;;;10.20;61.70;;;;;;5012400;28;20025;-61
2021/03/04 10:19:09;;;;;;;21.63;13.57;;;10.20;61.90;;;;;;5009943;28;20552;-62
2021/03/04 10:21:35;;;;;;;19.20;13.77;;;10.30;61.70;;;;;;5011155;28;20125;-62
2021/03/04 10:24:02;;;;;;;23.20;14.70;;;10.30;61.30;;;;;;5005970;28;20041;-60
2021/03/04 10:26:28;;;;;;;24.15;14.82;;;10.40;61.30;;;;;;5004165;28;20030;-60
2021/03/04 10:28:54;;;;;;;22.20;13.60;;;10.40;61.10;;;;;;4994620;28;20436;-61
2021/03/04 10:31:20;;;;;;;22.17;14.43;;;10.50;61.10;;;;;;5011620;28;21025;-61
2021/03/04 10:33:46;;;;;;;20.27;13.50;;;10.60;60.80;;;;;;5002781;28;20056;-61
2021/03/04 10:36:12;;;;;;;21.67;13.70;;;10.60;60.60;;;;;;5006205;28;20036;-60
2021/03/04 10:38:38;;;;;;;19.63;12.70;;;10.60;60.30;;;;;;5009442;28;20051;-62
2021/03/04 10:41:04;;;;;;;20.45;12.45;;;10.60;60.20;;;;;;5011576;28;20029;-59
2021/03/04 10:43:30;;;;;;;17.40;12.45;;;10.50;60.20;;;;;;5010683;28;20036;-59
2021/03/04 10:45:56;;;;;;;20.05;11.63;;;10.50;60.20;;;;;;5009650;28;20037;-60
2021/03/04 10:48:22;;;;;;;19.02;12.38;;;10.50;60.00;;;;;;5013716;28;20034;-60
2021/03/04 10:50:48;;;;;;;18.80;11.77;;;10.40;59.80;;;;;;5005883;28;20686;-60
2021/03/04 10:53:13;;;;;;;19.55;12.48;;;10.30;60.10;;;;;;5006232;28;20497;-60
2021/03/04 10:55:40;;;;;;;16.13;11.38;;;10.30;60.00;;;;;;5005063;28;20021;-60
2021/03/04 10:58:06;;;;;;;18.60;13.15;;;10.20;59.90;;;;;;5009630;28;20053;-60
2021/03/04 11:00:32;;;;;;;20.08;12.60;;;10.20;60.00;;;;;;5014958;28;20057;-60
2021/03/04 11:02:59;;;;;;;21.83;12.10;;;10.10;60.00;;;;;;5006501;28;20109;-60
2021/03/04 11:05:25;;;;;;;20.15;12.38;;;10.10;60.20;;;;;;5007625;28;20057;-60
2021/03/04 11:07:51;;;;;;;22.95;13.68;;;10.10;60.10;;;;;;5012967;28;20474;-60
2021/03/04 11:10:16;;;;;;;18.85;12.73;;;10.10;60.10;;;;;;5016990;28;20086;-60
2021/03/04 11:12:42;;;;;;;20.52;12.35;;;10.10;60.10;;;;;;5015559;28;20508;-60
2021/03/04 11:15:08;;;;;;;22.80;13.85;;;10.10;60.20;;;;;;5011302;28;20400;-61
2021/03/04 11:17:34;;;;;;;18.63;12.18;;;10.00;60.30;;;;;;5011524;28;20553;-61
2021/03/04 11:20:00;;;;;;;21.63;13.23;;;10.10;60.30;;;;;;5013107;28;20052;-61
2021/03/04 11:22:26;;;;;;;21.55;13.27;;;10.10;60.50;;;;;;5011299;28;20030;-63
2021/03/04 11:24:52;;;;;;;19.05;12.60;;;10.10;60.50;;;;;;5017934;28;20041;-59
2021/03/04 11:27:18;;;;;;;19.85;12.63;;;10.20;60.50;;;;;;5013288;28;20032;-60
2021/03/04 11:29:46;;;;;;;21.85;13.77;;;10.20;60.40;;;;;;5011427;28;20040;-59
2021/03/04 11:32:12;;;;;;;18.63;13.27;;;10.20;60.30;;;;;;5009972;28;20021;-59
2021/03/04 11:34:38;;;;;;;21.33;13.60;;;10.20;60.10;;;;;;5007132;28;20034;-59
2021/03/04 11:37:04;;;;;;;21.13;13.50;;;10.30;60.10;;;;;;5009924;28;20022;-60
2021/03/04 11:39:30;;;;;;;21.38;13.20;;;10.30;60.20;;;;;;5006151;28;20037;-59
2021/03/04 11:41:55;;;;;;;20.92;12.90;;;10.30;60.10;;;;;;5007970;28;20025;-59
2021/03/04 11:44:21;;;;;;;21.48;13.15;;;10.30;60.10;;;;;;5008893;28;20041;-59
2021/03/04 11:46:47;;;;;;;19.95;12.63;;;10.30;60.00;;;;;;5007141;28;20033;-59
2021/03/04 11:49:13;;;;;;;17.67;12.35;;;10.30;60.00;;;;;;5011961;28;20053;-60
2021/03/04 11:51:39;;;;;;;18.63;12.00;;;10.30;59.90;;;;;;5009613;28;20029;-60
2021/03/04 11:54:05;;;;;;;19.77;12.32;;;10.30;59.70;;;;;;5011478;28;20107;-59
2021/03/04 11:56:32;;;;;;;16.55;13.00;;;10.30;59.90;;;;;;5011044;28;20030;-58
2021/03/04 11:59:01;;;;;;;20.38;13.38;;;10.30;59.90;;;;;;5008418;28;20133;-60
2021/03/04 12:01:27;;;;;;;21.65;13.63;;;10.20;59.80;;;;;;5013553;28;20067;-59
2021/03/04 12:03:52;;;;;;;20.95;12.55;;;10.20;59.80;;;;;;5013718;28;20037;-59
2021/03/04 12:06:18;;;;;;;18.67;12.75;;;10.20;60.00;;;;;;5017920;28;20107;-60
2021/03/04 12:08:46;;;;;;;20.17;13.48;;;10.20;59.80;;;;;;5014685;28;20037;-59
2021/03/04 12:11:12;;;;;;;19.90;13.20;;;10.30;60.00;;;;;;5011781;28;20022;-62
2021/03/04 12:13:37;;;;;;;18.38;12.18;;;10.30;60.10;;;;;;5007219;28;20052;-61
2021/03/04 12:16:08;;;;;;;20.55;12.88;;;10.30;59.80;;;;;;5002582;28;20030;-62
2021/03/04 12:18:35;;;;;;;18.63;12.13;;;10.20;59.80;;;;;;5007220;28;20065;-60
2021/03/04 12:21:01;;;;;;;18.50;12.82;;;10.20;59.90;;;;;;5017356;28;20385;-60
2021/03/04 12:23:27;;;;;;;18.90;12.45;;;10.20;59.80;;;;;;5013115;28;20060;-63
2021/03/04 12:25:53;;;;;;;19.40;12.98;;;10.20;59.80;;;;;;5011420;28;20485;-62
2021/03/04 12:28:19;;;;;;;18.23;11.98;;;10.20;59.80;;;;;;5010464;28;20052;-62
2021/03/04 12:30:45;;;;;;;17.75;12.43;;;10.20;59.80;;;;;;5005486;28;20467;-58
2021/03/04 12:33:11;;;;;;;21.45;13.40;;;10.20;59.90;;;;;;5010175;28;20029;-60
2021/03/04 12:35:37;;;;;;;19.15;12.43;;;10.20;60.10;;;;;;5001543;28;20431;-59
2021/03/04 12:38:03;;;;;;;17.83;12.60;;;10.20;60.00;;;;;;5007899;28;20038;-60